sensor_id;sensor_type;location;lat;lon;timestamp;temperature;humidity
2783;DHT22;1399;47.072;15.452;2023-01-06T00:00:36;12.10;64.00
2783;DHT22;1399;47.072;15.452;2023-01-06T00:03:02;12.10;64.00
2783;DHT22;1399;47.072;15.452;2023-01-06T00:05:28;12.10;64.10
2783;DHT22;1399;47.072;15.452;2023-01-06T00:07:54;12.10;64.10
2783;DHT22;1399;47.072;15.452;2023-01-06T00:10:20;12.10;64.10
2783;DHT22;1399;47.072;15.452;2023-01-06T00:12:47;12.10;64.10
2783;DHT22;1399;47.072;15.452;2023-01-06T00:15:15;12.10;64.10
2783;DHT22;1399;47.072;15.452;2023-01-06T00:17:41;12.10;64.10
2783;DHT22;1399;47.072;15.452;2023-01-06T00:20:08;12.10;64.10
2783;DHT22;1399;47.072;15.452;2023-01-06T00:22:34;12.10;64.10
2783;DHT22;1399;47.072;15.452;2023-01-06T00:25:00;12.00;64.00
2783;DHT22;1399;47.072;15.452;2023-01-06T00:27:26;12.00;64.00
2783;DHT22;1399;47.072;15.452;2023-01-06T00:29:52;12.00;64.10
2783;DHT22;1399;47.072;15.452;2023-01-06T00:32:18;12.00;64.10
2783;DHT22;1399;47.072;15.452;2023-01-06T00:34:44;12.00;64.10
2783;DHT22;1399;47.072;15.452;2023-01-06T00:37:09;12.00;64.20
2783;DHT22;1399;47.072;15.452;2023-01-06T00:39:35;11.90;64.10
2783;DHT22;1399;47.072;15.452;2023-01-06T00:42:01;11.90;64.10
2783;DHT22;1399;47.072;15.452;2023-01-06T00:44:36;11.90;64.10
2783;DHT22;1399;47.072;15.452;2023-01-06T00:47:08;11.90;64.20
2783;DHT22;1399;47.072;15.452;2023-01-06T00:49:35;11.80;64.10
2783;DHT22;1399;47.072;15.452;2023-01-06T00:52:02;11.90;64.20
2783;DHT22;1399;47.072;15.452;2023-01-06T00:54:28;11.80;64.20
2783;DHT22;1399;47.072;15.452;2023-01-06T00:56:55;11.80;64.20
2783;DHT22;1399;47.072;15.452;2023-01-06T00:59:23;11.80;64.20
2783;DHT22;1399;47.072;15.452;2023-01-06T01:01:51;11.80;64.30
2783;DHT22;1399;47.072;15.452;2023-01-06T01:04:17;11.80;64.30
2783;DHT22;1399;47.072;15.452;2023-01-06T01:06:45;11.80;64.40
2783;DHT22;1399;47.072;15.452;2023-01-06T01:09:17;11.80;64.40
2783;DHT22;1399;47.072;15.452;2023-01-06T01:11:43;11.70;64.30
2783;DHT22;1399;47.072;15.452;2023-01-06T01:14:28;11.70;64.30
2783;DHT22;1399;47.072;15.452;2023-01-06T01:16:53;11.70;64.40
2783;DHT22;1399;47.072;15.452;2023-01-06T01:19:22;11.70;64.40
2783;DHT22;1399;47.072;15.452;2023-01-06T01:21:48;11.70;64.40
2783;DHT22;1399;47.072;15.452;2023-01-06T01:24:14;11.70;64.40
2783;DHT22;1399;47.072;15.452;2023-01-06T01:26:40;11.70;64.40
2783;DHT22;1399;47.072;15.452;2023-01-06T01:29:05;11.70;64.40
2783;DHT22;1399;47.072;15.452;2023-01-06T01:31:31;11.70;64.40
2783;DHT22;1399;47.072;15.452;2023-01-06T01:33:57;11.70;64.40
2783;DHT22;1399;47.072;15.452;2023-01-06T01:36:23;11.70;64.40
2783;DHT22;1399;47.072;15.452;2023-01-06T01:38:49;11.70;64.40
2783;DHT22;1399;47.072;15.452;2023-01-06T01:41:18;11.60;64.30
2783;DHT22;1399;47.072;15.452;2023-01-06T01:46:17;11.60;64.30
2783;DHT22;1399;47.072;15.452;2023-01-06T01:48:44;11.60;64.30
2783;DHT22;1399;47.072;15.452;2023-01-06T01:51:13;11.60;64.30
2783;DHT22;1399;47.072;15.452;2023-01-06T01:53:45;11.60;64.40
2783;DHT22;1399;47.072;15.452;2023-01-06T01:56:17;11.60;64.40
2783;DHT22;1399;47.072;15.452;2023-01-06T01:58:57;11.60;64.40
2783;DHT22;1399;47.072;15.452;2023-01-06T02:01:24;11.60;64.40
2783;DHT22;1399;47.072;15.452;2023-01-06T02:03:52;11.70;64.50
2783;DHT22;1399;47.072;15.452;2023-01-06T02:06:22;11.60;64.30
2783;DHT22;1399;47.072;15.452;2023-01-06T02:08:54;11.70;64.50
2783;DHT22;1399;47.072;15.452;2023-01-06T02:11:22;11.60;64.30
2783;DHT22;1399;47.072;15.452;2023-01-06T02:13:52;11.70;64.40
2783;DHT22;1399;47.072;15.452;2023-01-06T02:33:45;11.60;65.10
2783;DHT22;1399;47.072;15.452;2023-01-06T02:36:29;11.60;64.20
2783;DHT22;1399;47.072;15.452;2023-01-06T02:39:13;11.60;64.10
2783;DHT22;1399;47.072;15.452;2023-01-06T02:55:55;11.60;64.10
2783;DHT22;1399;47.072;15.452;2023-01-06T02:58:38;11.60;64.00
2783;DHT22;1399;47.072;15.452;2023-01-06T03:01:17;11.60;64.10
2783;DHT22;1399;47.072;15.452;2023-01-06T03:03:47;11.50;63.90
2783;DHT22;1399;47.072;15.452;2023-01-06T03:06:17;11.60;64.10
2783;DHT22;1399;47.072;15.452;2023-01-06T03:08:46;11.50;64.00
2783;DHT22;1399;47.072;15.452;2023-01-06T03:11:13;11.50;64.00
2783;DHT22;1399;47.072;15.452;2023-01-06T03:13:49;11.50;64.00
2783;DHT22;1399;47.072;15.452;2023-01-06T03:16:17;11.50;64.00
2783;DHT22;1399;47.072;15.452;2023-01-06T03:18:45;11.50;64.00
2783;DHT22;1399;47.072;15.452;2023-01-06T03:21:22;11.50;64.00
2783;DHT22;1399;47.072;15.452;2023-01-06T03:23:48;11.50;64.00
2783;DHT22;1399;47.072;15.452;2023-01-06T03:26:14;11.50;64.00
2783;DHT22;1399;47.072;15.452;2023-01-06T03:28:40;11.40;63.90
2783;DHT22;1399;47.072;15.452;2023-01-06T03:34:21;11.40;64.00
2783;DHT22;1399;47.072;15.452;2023-01-06T03:39:52;11.40;63.90
2783;DHT22;1399;47.072;15.452;2023-01-06T03:50:43;11.30;64.00
2783;DHT22;1399;47.072;15.452;2023-01-06T03:56:30;11.30;64.00
2783;DHT22;1399;47.072;15.452;2023-01-06T03:59:01;11.30;64.00
2783;DHT22;1399;47.072;15.452;2023-01-06T04:01:28;11.20;63.90
2783;DHT22;1399;47.072;15.452;2023-01-06T04:03:55;11.20;64.00
2783;DHT22;1399;47.072;15.452;2023-01-06T04:06:22;11.20;64.00
2783;DHT22;1399;47.072;15.452;2023-01-06T04:08:48;11.20;64.00
2783;DHT22;1399;47.072;15.452;2023-01-06T04:11:14;11.20;64.10
2783;DHT22;1399;47.072;15.452;2023-01-06T04:14:10;11.20;64.10
2783;DHT22;1399;47.072;15.452;2023-01-06T04:16:35;11.30;64.20
2783;DHT22;1399;47.072;15.452;2023-01-06T04:19:02;11.20;64.90
2783;DHT22;1399;47.072;15.452;2023-01-06T04:21:28;11.30;64.20
2783;DHT22;1399;47.072;15.452;2023-01-06T04:23:54;11.20;64.00
2783;DHT22;1399;47.072;15.452;2023-01-06T04:26:20;11.30;64.10
2783;DHT22;1399;47.072;15.452;2023-01-06T04:28:46;11.20;64.00
2783;DHT22;1399;47.072;15.452;2023-01-06T04:31:11;11.20;64.00
2783;DHT22;1399;47.072;15.452;2023-01-06T04:33:37;11.20;64.00
2783;DHT22;1399;47.072;15.452;2023-01-06T04:36:03;11.20;64.00
2783;DHT22;1399;47.072;15.452;2023-01-06T04:38:29;11.20;64.00
2783;DHT22;1399;47.072;15.452;2023-01-06T04:40:55;11.20;64.00
2783;DHT22;1399;47.072;15.452;2023-01-06T04:43:21;11.20;64.00
2783;DHT22;1399;47.072;15.452;2023-01-06T04:45:48;11.20;64.00
2783;DHT22;1399;47.072;15.452;2023-01-06T04:48:14;11.20;64.00
2783;DHT22;1399;47.072;15.452;2023-01-06T04:50:39;11.20;64.10
2783;DHT22;1399;47.072;15.452;2023-01-06T04:53:06;11.20;64.10
2783;DHT22;1399;47.072;15.452;2023-01-06T04:55:32;11.20;64.20
2783;DHT22;1399;47.072;15.452;2023-01-06T04:57:58;11.20;64.20
2783;DHT22;1399;47.072;15.452;2023-01-06T05:00:24;11.10;64.10
2783;DHT22;1399;47.072;15.452;2023-01-06T05:02:50;11.10;64.10
2783;DHT22;1399;47.072;15.452;2023-01-06T05:05:16;11.10;64.10
2783;DHT22;1399;47.072;15.452;2023-01-06T05:07:42;11.10;64.10
2783;DHT22;1399;47.072;15.452;2023-01-06T05:10:09;11.10;64.10
2783;DHT22;1399;47.072;15.452;2023-01-06T05:12:35;11.10;64.10
2783;DHT22;1399;47.072;15.452;2023-01-06T05:15:02;11.10;64.10
2783;DHT22;1399;47.072;15.452;2023-01-06T05:17:28;11.10;64.10
2783;DHT22;1399;47.072;15.452;2023-01-06T05:19:54;11.10;64.10
2783;DHT22;1399;47.072;15.452;2023-01-06T05:22:19;11.10;64.10
2783;DHT22;1399;47.072;15.452;2023-01-06T05:24:45;11.10;64.10
2783;DHT22;1399;47.072;15.452;2023-01-06T05:27:11;11.10;64.10
2783;DHT22;1399;47.072;15.452;2023-01-06T05:29:37;11.10;64.10
2783;DHT22;1399;47.072;15.452;2023-01-06T05:32:03;11.10;64.10
2783;DHT22;1399;47.072;15.452;2023-01-06T05:34:29;11.00;64.00
2783;DHT22;1399;47.072;15.452;2023-01-06T05:36:56;11.00;63.90
2783;DHT22;1399;47.072;15.452;2023-01-06T05:39:21;11.00;64.00
2783;DHT22;1399;47.072;15.452;2023-01-06T05:41:47;11.00;63.90
2783;DHT22;1399;47.072;15.452;2023-01-06T05:44:13;11.00;63.90
2783;DHT22;1399;47.072;15.452;2023-01-06T05:46:38;11.00;63.80
2783;DHT22;1399;47.072;15.452;2023-01-06T05:49:04;11.00;63.80
2783;DHT22;1399;47.072;15.452;2023-01-06T05:51:30;11.00;63.80
2783;DHT22;1399;47.072;15.452;2023-01-06T05:53:56;11.00;63.80
2783;DHT22;1399;47.072;15.452;2023-01-06T05:56:22;11.00;63.80
2783;DHT22;1399;47.072;15.452;2023-01-06T05:58:50;11.00;63.80
2783;DHT22;1399;47.072;15.452;2023-01-06T06:01:25;11.00;63.80
2783;DHT22;1399;47.072;15.452;2023-01-06T06:03:52;11.00;63.70
2783;DHT22;1399;47.072;15.452;2023-01-06T06:06:20;10.90;63.50
2783;DHT22;1399;47.072;15.452;2023-01-06T06:08:47;10.90;63.40
2783;DHT22;1399;47.072;15.452;2023-01-06T06:11:14;10.90;63.40
2783;DHT22;1399;47.072;15.452;2023-01-06T06:13:46;10.90;63.40
2783;DHT22;1399;47.072;15.452;2023-01-06T06:16:14;10.90;63.50
2783;DHT22;1399;47.072;15.452;2023-01-06T06:18:41;10.90;63.40
2783;DHT22;1399;47.072;15.452;2023-01-06T06:21:15;10.90;63.30
2783;DHT22;1399;47.072;15.452;2023-01-06T06:23:41;10.80;63.10
2783;DHT22;1399;47.072;15.452;2023-01-06T06:26:08;10.80;63.10
2783;DHT22;1399;47.072;15.452;2023-01-06T06:28:35;10.80;63.20
2783;DHT22;1399;47.072;15.452;2023-01-06T06:31:14;10.80;63.10
2783;DHT22;1399;47.072;15.452;2023-01-06T06:33:40;10.80;63.10
2783;DHT22;1399;47.072;15.452;2023-01-06T06:36:07;10.80;63.00
2783;DHT22;1399;47.072;15.452;2023-01-06T06:38:37;10.80;63.00
2783;DHT22;1399;47.072;15.452;2023-01-06T06:41:03;10.80;62.80
2783;DHT22;1399;47.072;15.452;2023-01-06T06:43:29;10.80;62.80
2783;DHT22;1399;47.072;15.452;2023-01-06T06:45:55;10.80;62.80
2783;DHT22;1399;47.072;15.452;2023-01-06T06:48:21;10.80;62.80
2783;DHT22;1399;47.072;15.452;2023-01-06T06:50:56;10.80;62.80
2783;DHT22;1399;47.072;15.452;2023-01-06T06:53:22;10.80;62.60
2783;DHT22;1399;47.072;15.452;2023-01-06T06:55:48;10.70;62.50
2783;DHT22;1399;47.072;15.452;2023-01-06T06:58:13;10.80;62.50
2783;DHT22;1399;47.072;15.452;2023-01-06T07:00:39;10.70;62.40
2783;DHT22;1399;47.072;15.452;2023-01-06T07:03:05;10.70;62.30
2783;DHT22;1399;47.072;15.452;2023-01-06T07:05:30;10.70;62.20
2783;DHT22;1399;47.072;15.452;2023-01-06T07:07:56;10.70;62.10
2783;DHT22;1399;47.072;15.452;2023-01-06T07:10:22;10.70;62.00
2783;DHT22;1399;47.072;15.452;2023-01-06T07:12:48;10.70;62.00
2783;DHT22;1399;47.072;15.452;2023-01-06T07:15:13;10.70;61.90
2783;DHT22;1399;47.072;15.452;2023-01-06T07:17:39;10.70;61.90
2783;DHT22;1399;47.072;15.452;2023-01-06T07:20:07;10.80;62.00
2783;DHT22;1399;47.072;15.452;2023-01-06T07:22:38;10.70;61.80
2783;DHT22;1399;47.072;15.452;2023-01-06T07:25:08;10.80;61.80
2783;DHT22;1399;47.072;15.452;2023-01-06T07:27:34;10.80;61.70
2783;DHT22;1399;47.072;15.452;2023-01-06T07:30:01;10.80;61.70
2783;DHT22;1399;47.072;15.452;2023-01-06T07:32:27;10.80;61.60
2783;DHT22;1399;47.072;15.452;2023-01-06T07:34:52;10.90;61.60
2783;DHT22;1399;47.072;15.452;2023-01-06T07:37:18;10.90;61.50
2783;DHT22;1399;47.072;15.452;2023-01-06T07:39:44;11.00;61.50
2783;DHT22;1399;47.072;15.452;2023-01-06T07:42:10;11.00;61.40
2783;DHT22;1399;47.072;15.452;2023-01-06T07:44:36;11.00;61.30
2783;DHT22;1399;47.072;15.452;2023-01-06T07:47:02;11.10;61.20
2783;DHT22;1399;47.072;15.452;2023-01-06T07:49:28;11.10;61.20
2783;DHT22;1399;47.072;15.452;2023-01-06T07:51:53;11.10;61.00
2783;DHT22;1399;47.072;15.452;2023-01-06T07:54:19;11.20;61.00
2783;DHT22;1399;47.072;15.452;2023-01-06T07:56:45;11.20;60.90
2783;DHT22;1399;47.072;15.452;2023-01-06T07:59:10;11.20;60.70
2783;DHT22;1399;47.072;15.452;2023-01-06T08:01:36;11.30;60.80
2783;DHT22;1399;47.072;15.452;2023-01-06T08:04:02;11.30;60.80
2783;DHT22;1399;47.072;15.452;2023-01-06T08:06:28;11.30;60.70
2783;DHT22;1399;47.072;15.452;2023-01-06T08:08:54;11.30;60.70
2783;DHT22;1399;47.072;15.452;2023-01-06T08:11:20;11.30;60.70
2783;DHT22;1399;47.072;15.452;2023-01-06T08:13:46;11.40;60.80
2783;DHT22;1399;47.072;15.452;2023-01-06T08:16:12;11.40;60.80
2783;DHT22;1399;47.072;15.452;2023-01-06T08:18:37;11.40;60.80
2783;DHT22;1399;47.072;15.452;2023-01-06T08:21:06;11.40;60.70
2783;DHT22;1399;47.072;15.452;2023-01-06T08:23:33;11.40;60.70
2783;DHT22;1399;47.072;15.452;2023-01-06T08:26:09;11.40;60.70
2783;DHT22;1399;47.072;15.452;2023-01-06T08:28:35;11.40;60.80
2783;DHT22;1399;47.072;15.452;2023-01-06T08:31:01;11.40;60.80
2783;DHT22;1399;47.072;15.452;2023-01-06T08:33:27;11.50;60.90
2783;DHT22;1399;47.072;15.452;2023-01-06T08:36:01;11.50;60.90
2783;DHT22;1399;47.072;15.452;2023-01-06T08:38:28;11.40;60.80
2783;DHT22;1399;47.072;15.452;2023-01-06T08:40:55;11.50;61.00
2783;DHT22;1399;47.072;15.452;2023-01-06T08:43:21;11.50;61.00
2783;DHT22;1399;47.072;15.452;2023-01-06T08:45:47;11.50;61.00
2783;DHT22;1399;47.072;15.452;2023-01-06T08:48:13;11.50;61.00
2783;DHT22;1399;47.072;15.452;2023-01-06T08:50:40;11.50;61.00
2783;DHT22;1399;47.072;15.452;2023-01-06T08:53:07;11.50;61.00
2783;DHT22;1399;47.072;15.452;2023-01-06T08:55:33;11.50;61.00
2783;DHT22;1399;47.072;15.452;2023-01-06T08:57:59;11.50;61.00
2783;DHT22;1399;47.072;15.452;2023-01-06T09:00:25;11.60;61.20
2783;DHT22;1399;47.072;15.452;2023-01-06T09:02:50;11.50;61.20
2783;DHT22;1399;47.072;15.452;2023-01-06T09:05:16;11.60;61.20
2783;DHT22;1399;47.072;15.452;2023-01-06T09:07:42;11.60;61.20
2783;DHT22;1399;47.072;15.452;2023-01-06T09:10:08;11.60;61.30
2783;DHT22;1399;47.072;15.452;2023-01-06T09:12:34;11.60;61.30
2783;DHT22;1399;47.072;15.452;2023-01-06T09:15:00;11.60;61.20
2783;DHT22;1399;47.072;15.452;2023-01-06T09:17:26;11.60;61.20
2783;DHT22;1399;47.072;15.452;2023-01-06T09:19:51;11.60;61.20
2783;DHT22;1399;47.072;15.452;2023-01-06T09:22:17;11.60;61.10
2783;DHT22;1399;47.072;15.452;2023-01-06T09:24:43;11.60;61.20
2783;DHT22;1399;47.072;15.452;2023-01-06T09:27:09;11.70;61.20
2783;DHT22;1399;47.072;15.452;2023-01-06T09:29:34;11.60;61.10
2783;DHT22;1399;47.072;15.452;2023-01-06T09:32:00;11.60;61.10
2783;DHT22;1399;47.072;15.452;2023-01-06T09:34:27;11.70;61.20
2783;DHT22;1399;47.072;15.452;2023-01-06T09:36:53;11.70;61.20
2783;DHT22;1399;47.072;15.452;2023-01-06T09:39:19;11.70;61.20
2783;DHT22;1399;47.072;15.452;2023-01-06T09:44:48;11.70;61.20
2783;DHT22;1399;47.072;15.452;2023-01-06T09:47:18;11.80;61.20
2783;DHT22;1399;47.072;15.452;2023-01-06T09:50:02;11.80;61.30
2783;DHT22;1399;47.072;15.452;2023-01-06T09:55:31;11.80;61.30
2783;DHT22;1399;47.072;15.452;2023-01-06T09:58:12;11.80;61.50
2783;DHT22;1399;47.072;15.452;2023-01-06T10:01:11;11.80;61.40
2783;DHT22;1399;47.072;15.452;2023-01-06T10:03:37;11.80;61.50
2783;DHT22;1399;47.072;15.452;2023-01-06T10:17:40;11.90;61.70
2783;DHT22;1399;47.072;15.452;2023-01-06T10:23:14;11.90;61.60
2783;DHT22;1399;47.072;15.452;2023-01-06T10:25:53;11.90;61.70
2783;DHT22;1399;47.072;15.452;2023-01-06T10:28:35;11.90;61.60
2783;DHT22;1399;47.072;15.452;2023-01-06T10:31:14;11.90;61.70
2783;DHT22;1399;47.072;15.452;2023-01-06T10:33:51;12.00;61.70
2783;DHT22;1399;47.072;15.452;2023-01-06T10:36:25;12.00;61.70
2783;DHT22;1399;47.072;15.452;2023-01-06T10:38:54;12.00;61.70
2783;DHT22;1399;47.072;15.452;2023-01-06T10:41:29;12.00;61.70
2783;DHT22;1399;47.072;15.452;2023-01-06T10:43:59;12.00;61.60
2783;DHT22;1399;47.072;15.452;2023-01-06T10:46:32;12.00;61.60
2783;DHT22;1399;47.072;15.452;2023-01-06T10:48:59;12.00;61.60
2783;DHT22;1399;47.072;15.452;2023-01-06T10:51:37;12.10;61.60
2783;DHT22;1399;47.072;15.452;2023-01-06T10:54:11;12.10;61.60
2783;DHT22;1399;47.072;15.452;2023-01-06T10:56:39;12.10;61.50
2783;DHT22;1399;47.072;15.452;2023-01-06T10:59:08;12.20;61.70
2783;DHT22;1399;47.072;15.452;2023-01-06T11:01:35;12.20;61.60
2783;DHT22;1399;47.072;15.452;2023-01-06T11:04:12;12.10;61.40
2783;DHT22;1399;47.072;15.452;2023-01-06T11:06:43;12.20;61.50
2783;DHT22;1399;47.072;15.452;2023-01-06T11:09:32;12.20;61.40
2783;DHT22;1399;47.072;15.452;2023-01-06T11:12:15;12.30;61.50
2783;DHT22;1399;47.072;15.452;2023-01-06T11:14:59;12.30;61.40
2783;DHT22;1399;47.072;15.452;2023-01-06T11:17:27;12.30;61.40
2783;DHT22;1399;47.072;15.452;2023-01-06T11:22:39;12.30;61.30
2783;DHT22;1399;47.072;15.452;2023-01-06T11:25:25;12.30;61.30
2783;DHT22;1399;47.072;15.452;2023-01-06T11:30:47;12.40;61.30
2783;DHT22;1399;47.072;15.452;2023-01-06T11:33:23;12.40;61.40
2783;DHT22;1399;47.072;15.452;2023-01-06T11:35:50;12.40;61.30
2783;DHT22;1399;47.072;15.452;2023-01-06T11:38:18;12.40;61.30
2783;DHT22;1399;47.072;15.452;2023-01-06T11:40:53;12.40;61.30
2783;DHT22;1399;47.072;15.452;2023-01-06T11:43:22;12.40;61.30
2783;DHT22;1399;47.072;15.452;2023-01-06T11:45:58;12.40;61.30
2783;DHT22;1399;47.072;15.452;2023-01-06T11:48:33;12.40;61.30
2783;DHT22;1399;47.072;15.452;2023-01-06T11:51:03;12.50;61.40
2783;DHT22;1399;47.072;15.452;2023-01-06T11:53:30;12.50;61.40
2783;DHT22;1399;47.072;15.452;2023-01-06T11:58:28;12.50;61.50
2783;DHT22;1399;47.072;15.452;2023-01-06T12:01:37;12.50;61.50
2783;DHT22;1399;47.072;15.452;2023-01-06T12:04:14;12.50;61.50
2783;DHT22;1399;47.072;15.452;2023-01-06T12:06:43;12.50;61.40
2783;DHT22;1399;47.072;15.452;2023-01-06T12:09:23;12.60;61.40
2783;DHT22;1399;47.072;15.452;2023-01-06T12:11:54;12.50;61.40
2783;DHT22;1399;47.072;15.452;2023-01-06T12:14:21;12.50;61.40
2783;DHT22;1399;47.072;15.452;2023-01-06T12:16:51;12.60;61.40
2783;DHT22;1399;47.072;15.452;2023-01-06T12:19:44;12.60;61.40
2783;DHT22;1399;47.072;15.452;2023-01-06T12:24:55;12.60;61.30
2783;DHT22;1399;47.072;15.452;2023-01-06T12:27:49;12.60;61.30
2783;DHT22;1399;47.072;15.452;2023-01-06T12:33:09;12.60;61.20
2783;DHT22;1399;47.072;15.452;2023-01-06T12:35:37;12.60;61.10
2783;DHT22;1399;47.072;15.452;2023-01-06T12:41:08;12.70;61.10
2783;DHT22;1399;47.072;15.452;2023-01-06T12:43:38;12.70;61.10
2783;DHT22;1399;47.072;15.452;2023-01-06T12:46:18;12.70;61.00
2783;DHT22;1399;47.072;15.452;2023-01-06T12:48:49;12.70;60.90
2783;DHT22;1399;47.072;15.452;2023-01-06T12:51:48;12.70;60.90
2783;DHT22;1399;47.072;15.452;2023-01-06T12:54:32;12.70;60.80
2783;DHT22;1399;47.072;15.452;2023-01-06T12:57:55;12.70;60.70
2783;DHT22;1399;47.072;15.452;2023-01-06T13:03:32;12.70;60.60
2783;DHT22;1399;47.072;15.452;2023-01-06T13:11:38;12.70;60.50
2783;DHT22;1399;47.072;15.452;2023-01-06T13:14:26;12.80;60.50
2783;DHT22;1399;47.072;15.452;2023-01-06T13:22:01;12.70;60.30
2783;DHT22;1399;47.072;15.452;2023-01-06T13:24:48;12.80;60.30
2783;DHT22;1399;47.072;15.452;2023-01-06T13:35:28;12.70;60.30
2783;DHT22;1399;47.072;15.452;2023-01-06T13:38:13;12.80;60.30
2783;DHT22;1399;47.072;15.452;2023-01-06T13:40:43;12.70;60.20
2783;DHT22;1399;47.072;15.452;2023-01-06T13:45:48;12.70;60.10
2783;DHT22;1399;47.072;15.452;2023-01-06T13:48:23;12.70;60.00
2783;DHT22;1399;47.072;15.452;2023-01-06T13:50:50;12.70;60.00
2783;DHT22;1399;47.072;15.452;2023-01-06T13:53:19;12.70;60.00
2783;DHT22;1399;47.072;15.452;2023-01-06T13:55:46;12.70;60.00
2783;DHT22;1399;47.072;15.452;2023-01-06T13:58:33;12.70;60.00
2783;DHT22;1399;47.072;15.452;2023-01-06T14:03:32;12.70;59.90
2783;DHT22;1399;47.072;15.452;2023-01-06T14:06:00;12.70;59.90
2783;DHT22;1399;47.072;15.452;2023-01-06T14:08:29;12.70;59.90
2783;DHT22;1399;47.072;15.452;2023-01-06T14:11:21;12.70;59.90
2783;DHT22;1399;47.072;15.452;2023-01-06T14:13:51;12.70;60.00
2783;DHT22;1399;47.072;15.452;2023-01-06T14:16:18;12.70;60.00
2783;DHT22;1399;47.072;15.452;2023-01-06T14:18:50;12.70;60.00
2783;DHT22;1399;47.072;15.452;2023-01-06T14:21:28;12.70;60.00
2783;DHT22;1399;47.072;15.452;2023-01-06T14:24:04;12.70;60.00
2783;DHT22;1399;47.072;15.452;2023-01-06T14:27:03;12.70;59.90
2783;DHT22;1399;47.072;15.452;2023-01-06T14:32:06;12.70;59.90
2783;DHT22;1399;47.072;15.452;2023-01-06T14:34:33;12.70;60.00
2783;DHT22;1399;47.072;15.452;2023-01-06T14:36:59;12.70;60.00
2783;DHT22;1399;47.072;15.452;2023-01-06T14:39:29;12.60;59.90
2783;DHT22;1399;47.072;15.452;2023-01-06T14:42:12;12.60;59.90
2783;DHT22;1399;47.072;15.452;2023-01-06T14:44:42;12.60;59.90
2783;DHT22;1399;47.072;15.452;2023-01-06T14:49:57;12.60;60.00
2783;DHT22;1399;47.072;15.452;2023-01-06T14:52:31;12.60;59.90
2783;DHT22;1399;47.072;15.452;2023-01-06T14:54:58;12.60;60.00
2783;DHT22;1399;47.072;15.452;2023-01-06T14:57:36;12.60;60.00
2783;DHT22;1399;47.072;15.452;2023-01-06T15:02:47;12.60;60.10
2783;DHT22;1399;47.072;15.452;2023-01-06T15:05:30;12.60;60.10
2783;DHT22;1399;47.072;15.452;2023-01-06T15:10:39;12.60;60.20
2783;DHT22;1399;47.072;15.452;2023-01-06T15:13:28;12.50;60.10
2783;DHT22;1399;47.072;15.452;2023-01-06T15:16:04;12.50;60.20
2783;DHT22;1399;47.072;15.452;2023-01-06T15:18:31;12.50;60.30
2783;DHT22;1399;47.072;15.452;2023-01-06T15:20:58;12.50;60.30
2783;DHT22;1399;47.072;15.452;2023-01-06T15:23:24;12.40;60.20
2783;DHT22;1399;47.072;15.452;2023-01-06T15:25:52;12.50;60.40
2783;DHT22;1399;47.072;15.452;2023-01-06T15:28:28;12.40;60.30
2783;DHT22;1399;47.072;15.452;2023-01-06T15:30:54;12.40;60.30
2783;DHT22;1399;47.072;15.452;2023-01-06T15:33:22;12.40;60.40
2783;DHT22;1399;47.072;15.452;2023-01-06T15:35:50;12.40;60.40
2783;DHT22;1399;47.072;15.452;2023-01-06T15:38:26;12.30;60.40
2783;DHT22;1399;47.072;15.452;2023-01-06T15:40:53;12.30;60.50
2783;DHT22;1399;47.072;15.452;2023-01-06T15:43:22;12.30;60.50
2783;DHT22;1399;47.072;15.452;2023-01-06T15:46:14;12.30;60.50
2783;DHT22;1399;47.072;15.452;2023-01-06T15:48:44;12.30;60.50
2783;DHT22;1399;47.072;15.452;2023-01-06T15:51:15;12.30;60.50
2783;DHT22;1399;47.072;15.452;2023-01-06T15:53:42;12.20;60.50
2783;DHT22;1399;47.072;15.452;2023-01-06T15:56:22;12.20;60.60
2783;DHT22;1399;47.072;15.452;2023-01-06T15:58:53;12.20;60.60
2783;DHT22;1399;47.072;15.452;2023-01-06T16:01:21;12.20;60.70
2783;DHT22;1399;47.072;15.452;2023-01-06T16:03:50;12.20;60.70
2783;DHT22;1399;47.072;15.452;2023-01-06T16:06:27;12.20;60.70
2783;DHT22;1399;47.072;15.452;2023-01-06T16:08:53;12.10;60.60
2783;DHT22;1399;47.072;15.452;2023-01-06T16:11:39;12.20;60.80
2783;DHT22;1399;47.072;15.452;2023-01-06T16:14:43;12.10;60.70
2783;DHT22;1399;47.072;15.452;2023-01-06T16:17:30;12.10;60.80
2783;DHT22;1399;47.072;15.452;2023-01-06T16:20:01;12.10;60.80
2783;DHT22;1399;47.072;15.452;2023-01-06T16:24:56;12.10;60.90
2783;DHT22;1399;47.072;15.452;2023-01-06T16:27:24;12.10;60.90
2783;DHT22;1399;47.072;15.452;2023-01-06T16:32:46;12.00;60.80
2783;DHT22;1399;47.072;15.452;2023-01-06T16:35:18;12.00;60.90
2783;DHT22;1399;47.072;15.452;2023-01-06T16:37:44;12.00;60.90
2783;DHT22;1399;47.072;15.452;2023-01-06T16:40:12;12.00;61.00
2783;DHT22;1399;47.072;15.452;2023-01-06T16:42:38;12.00;61.00
2783;DHT22;1399;47.072;15.452;2023-01-06T16:45:11;12.00;61.00
2783;DHT22;1399;47.072;15.452;2023-01-06T16:47:39;12.00;61.00
2783;DHT22;1399;47.072;15.452;2023-01-06T16:50:38;11.90;60.90
2783;DHT22;1399;47.072;15.452;2023-01-06T16:53:16;11.90;60.90
2783;DHT22;1399;47.072;15.452;2023-01-06T16:55:43;11.90;60.90
2783;DHT22;1399;47.072;15.452;2023-01-06T16:58:17;11.90;60.90
2783;DHT22;1399;47.072;15.452;2023-01-06T17:00:44;11.90;60.90
2783;DHT22;1399;47.072;15.452;2023-01-06T17:03:18;11.90;60.90
2783;DHT22;1399;47.072;15.452;2023-01-06T17:05:44;11.90;61.00
2783;DHT22;1399;47.072;15.452;2023-01-06T17:08:13;11.80;60.80
2783;DHT22;1399;47.072;15.452;2023-01-06T17:10:39;11.90;60.90
2783;DHT22;1399;47.072;15.452;2023-01-06T17:13:07;11.80;60.80
2783;DHT22;1399;47.072;15.452;2023-01-06T17:18:28;11.80;60.70
2783;DHT22;1399;47.072;15.452;2023-01-06T17:21:04;11.80;60.60
2783;DHT22;1399;47.072;15.452;2023-01-06T17:23:41;11.80;60.60
2783;DHT22;1399;47.072;15.452;2023-01-06T17:26:13;11.80;60.60
2783;DHT22;1399;47.072;15.452;2023-01-06T17:28:41;11.70;60.50
2783;DHT22;1399;47.072;15.452;2023-01-06T17:33:40;11.70;60.40
2783;DHT22;1399;47.072;15.452;2023-01-06T17:36:21;11.70;60.50
2783;DHT22;1399;47.072;15.452;2023-01-06T17:38:47;11.60;60.30
2783;DHT22;1399;47.072;15.452;2023-01-06T17:41:16;11.60;60.30
2783;DHT22;1399;47.072;15.452;2023-01-06T17:43:43;11.60;60.20
2783;DHT22;1399;47.072;15.452;2023-01-06T17:46:23;11.60;60.20
2783;DHT22;1399;47.072;15.452;2023-01-06T17:49:06;11.60;60.20
2783;DHT22;1399;47.072;15.452;2023-01-06T17:51:33;11.50;60.00
2783;DHT22;1399;47.072;15.452;2023-01-06T17:54:00;11.60;60.10
2783;DHT22;1399;47.072;15.452;2023-01-06T17:56:45;11.50;60.00
2783;DHT22;1399;47.072;15.452;2023-01-06T17:59:16;11.50;59.90
2783;DHT22;1399;47.072;15.452;2023-01-06T18:01:42;11.50;60.00
2783;DHT22;1399;47.072;15.452;2023-01-06T18:04:13;11.50;59.90
2783;DHT22;1399;47.072;15.452;2023-01-06T18:06:42;11.50;59.90
2783;DHT22;1399;47.072;15.452;2023-01-06T18:09:18;11.40;59.80
2783;DHT22;1399;47.072;15.452;2023-01-06T18:11:50;11.40;59.90
2783;DHT22;1399;47.072;15.452;2023-01-06T18:14:28;11.40;59.80
2783;DHT22;1399;47.072;15.452;2023-01-06T18:16:56;11.40;59.90
2783;DHT22;1399;47.072;15.452;2023-01-06T18:19:27;11.40;59.90
2783;DHT22;1399;47.072;15.452;2023-01-06T18:21:55;11.40;60.00